sensor_id;sensor_type;location;lat;lon;timestamp;P1;durP1;ratioP1;P2;durP2;ratioP2
7587;SDS011;3835;48.850;8.938;2022-07-18T00:02:24;12.23;;;11.73;;
7587;SDS011;3835;48.850;8.938;2022-07-18T00:04:51;12.17;;;11.67;;
7587;SDS011;3835;48.850;8.938;2022-07-18T00:07:18;12.17;;;11.70;;
7587;SDS011;3835;48.850;8.938;2022-07-18T00:09:46;11.60;;;11.20;;
7587;SDS011;3835;48.850;8.938;2022-07-18T00:12:13;11.83;;;11.33;;
7587;SDS011;3835;48.850;8.938;2022-07-18T00:14:41;10.47;;;10.07;;
7587;SDS011;3835;48.850;8.938;2022-07-18T00:17:08;11.70;;;11.30;;
7587;SDS011;3835;48.850;8.938;2022-07-18T00:19:35;12.20;;;11.70;;
7587;SDS011;3835;48.850;8.938;2022-07-18T00:22:03;11.67;;;11.27;;
7587;SDS011;3835;48.850;8.938;2022-07-18T00:24:30;11.93;;;11.43;;
7587;SDS011;3835;48.850;8.938;2022-07-18T00:26:59;10.90;;;10.50;;
7587;SDS011;3835;48.850;8.938;2022-07-18T00:29:27;12.93;;;12.43;;
7587;SDS011;3835;48.850;8.938;2022-07-18T00:31:54;11.23;;;10.73;;
7587;SDS011;3835;48.850;8.938;2022-07-18T00:34:21;11.80;;;11.30;;
7587;SDS011;3835;48.850;8.938;2022-07-18T00:36:47;12.43;;;11.93;;
7587;SDS011;3835;48.850;8.938;2022-07-18T00:39:14;11.93;;;11.53;;
7587;SDS011;3835;48.850;8.938;2022-07-18T00:41:44;10.90;;;10.40;;
7587;SDS011;3835;48.850;8.938;2022-07-18T00:44:17;13.23;;;12.73;;
7587;SDS011;3835;48.850;8.938;2022-07-18T00:46:44;12.83;;;12.33;;
7587;SDS011;3835;48.850;8.938;2022-07-18T00:49:11;12.70;;;12.20;;
7587;SDS011;3835;48.850;8.938;2022-07-18T00:51:38;11.97;;;11.47;;
7587;SDS011;3835;48.850;8.938;2022-07-18T00:54:04;12.27;;;11.77;;
7587;SDS011;3835;48.850;8.938;2022-07-18T00:56:31;11.60;;;11.13;;
7587;SDS011;3835;48.850;8.938;2022-07-18T00:58:58;12.13;;;11.63;;
7587;SDS011;3835;48.850;8.938;2022-07-18T01:01:27;12.60;;;12.10;;
7587;SDS011;3835;48.850;8.938;2022-07-18T01:04:08;12.77;;;12.27;;
7587;SDS011;3835;48.850;8.938;2022-07-18T01:06:36;11.93;;;11.50;;
7587;SDS011;3835;48.850;8.938;2022-07-18T01:09:03;11.97;;;11.37;;
7587;SDS011;3835;48.850;8.938;2022-07-18T01:11:31;11.43;;;10.93;;
7587;SDS011;3835;48.850;8.938;2022-07-18T01:13:58;11.23;;;10.83;;
7587;SDS011;3835;48.850;8.938;2022-07-18T01:16:27;11.33;;;10.93;;
7587;SDS011;3835;48.850;8.938;2022-07-18T01:18:54;11.70;;;11.20;;
7587;SDS011;3835;48.850;8.938;2022-07-18T01:21:22;11.53;;;11.03;;
7587;SDS011;3835;48.850;8.938;2022-07-18T01:23:49;10.83;;;10.43;;
7587;SDS011;3835;48.850;8.938;2022-07-18T01:26:16;10.97;;;10.57;;
7587;SDS011;3835;48.850;8.938;2022-07-18T01:28:44;11.87;;;11.37;;
7587;SDS011;3835;48.850;8.938;2022-07-18T01:31:11;11.53;;;11.13;;
7587;SDS011;3835;48.850;8.938;2022-07-18T01:33:39;11.37;;;10.87;;
7587;SDS011;3835;48.850;8.938;2022-07-18T01:36:06;12.60;;;12.10;;
7587;SDS011;3835;48.850;8.938;2022-07-18T01:38:35;12.40;;;11.90;;
7587;SDS011;3835;48.850;8.938;2022-07-18T01:41:03;12.77;;;12.27;;
7587;SDS011;3835;48.850;8.938;2022-07-18T01:46:02;14.47;;;13.87;;
7587;SDS011;3835;48.850;8.938;2022-07-18T01:48:29;16.77;;;16.07;;
7587;SDS011;3835;48.850;8.938;2022-07-18T01:50:56;13.80;;;13.30;;
7587;SDS011;3835;48.850;8.938;2022-07-18T01:53:23;14.60;;;14.00;;
7587;SDS011;3835;48.850;8.938;2022-07-18T01:55:51;15.37;;;14.77;;
7587;SDS011;3835;48.850;8.938;2022-07-18T01:58:18;14.80;;;14.23;;
7587;SDS011;3835;48.850;8.938;2022-07-18T02:00:45;15.27;;;14.67;;
7587;SDS011;3835;48.850;8.938;2022-07-18T02:03:12;13.07;;;12.57;;
7587;SDS011;3835;48.850;8.938;2022-07-18T02:05:38;12.60;;;12.10;;
7587;SDS011;3835;48.850;8.938;2022-07-18T02:08:05;13.03;;;12.53;;
7587;SDS011;3835;48.850;8.938;2022-07-18T02:10:32;13.93;;;13.27;;
7587;SDS011;3835;48.850;8.938;2022-07-18T02:13:00;12.03;;;11.57;;
7587;SDS011;3835;48.850;8.938;2022-07-18T02:15:27;12.67;;;12.17;;
7587;SDS011;3835;48.850;8.938;2022-07-18T02:17:54;10.73;;;10.23;;
7587;SDS011;3835;48.850;8.938;2022-07-18T02:20:21;11.33;;;10.90;;
7587;SDS011;3835;48.850;8.938;2022-07-18T02:22:48;11.67;;;11.27;;
7587;SDS011;3835;48.850;8.938;2022-07-18T02:25:14;14.30;;;13.80;;
7587;SDS011;3835;48.850;8.938;2022-07-18T02:27:41;13.27;;;12.73;;
7587;SDS011;3835;48.850;8.938;2022-07-18T02:30:10;11.87;;;11.37;;
7587;SDS011;3835;48.850;8.938;2022-07-18T02:32:38;11.47;;;10.97;;
7587;SDS011;3835;48.850;8.938;2022-07-18T02:35:06;13.57;;;13.07;;
7587;SDS011;3835;48.850;8.938;2022-07-18T02:37:35;12.83;;;12.33;;
7587;SDS011;3835;48.850;8.938;2022-07-18T02:40:03;14.57;;;14.00;;
7587;SDS011;3835;48.850;8.938;2022-07-18T02:42:31;17.00;;;16.13;;
7587;SDS011;3835;48.850;8.938;2022-07-18T02:44:58;18.00;;;17.30;;
7587;SDS011;3835;48.850;8.938;2022-07-18T02:47:27;13.30;;;12.80;;
7587;SDS011;3835;48.850;8.938;2022-07-18T02:49:53;16.60;;;16.00;;
7587;SDS011;3835;48.850;8.938;2022-07-18T02:52:20;14.90;;;14.30;;
7587;SDS011;3835;48.850;8.938;2022-07-18T02:54:47;12.13;;;11.60;;
7587;SDS011;3835;48.850;8.938;2022-07-18T02:57:14;11.47;;;11.07;;
7587;SDS011;3835;48.850;8.938;2022-07-18T02:59:41;11.20;;;10.70;;
7587;SDS011;3835;48.850;8.938;2022-07-18T03:02:08;13.50;;;12.93;;
7587;SDS011;3835;48.850;8.938;2022-07-18T03:04:36;14.60;;;14.00;;
7587;SDS011;3835;48.850;8.938;2022-07-18T03:07:02;15.93;;;15.33;;
7587;SDS011;3835;48.850;8.938;2022-07-18T03:09:29;15.53;;;14.93;;
7587;SDS011;3835;48.850;8.938;2022-07-18T03:11:56;15.93;;;15.33;;
7587;SDS011;3835;48.850;8.938;2022-07-18T03:14:23;13.40;;;12.80;;
7587;SDS011;3835;48.850;8.938;2022-07-18T03:16:50;11.57;;;11.17;;
7587;SDS011;3835;48.850;8.938;2022-07-18T03:19:17;12.60;;;12.10;;
7587;SDS011;3835;48.850;8.938;2022-07-18T03:21:45;10.70;;;10.30;;
7587;SDS011;3835;48.850;8.938;2022-07-18T03:24:12;11.47;;;11.07;;
7587;SDS011;3835;48.850;8.938;2022-07-18T03:26:40;13.00;;;12.40;;
7587;SDS011;3835;48.850;8.938;2022-07-18T03:29:07;13.07;;;12.57;;
7587;SDS011;3835;48.850;8.938;2022-07-18T03:31:33;11.80;;;11.20;;
7587;SDS011;3835;48.850;8.938;2022-07-18T03:34:00;10.67;;;10.27;;
7587;SDS011;3835;48.850;8.938;2022-07-18T03:36:27;11.17;;;10.67;;
7587;SDS011;3835;48.850;8.938;2022-07-18T03:38:56;12.30;;;11.80;;
7587;SDS011;3835;48.850;8.938;2022-07-18T03:41:23;11.67;;;11.17;;
7587;SDS011;3835;48.850;8.938;2022-07-18T03:43:49;11.10;;;10.67;;
7587;SDS011;3835;48.850;8.938;2022-07-18T03:46:16;14.10;;;13.57;;
7587;SDS011;3835;48.850;8.938;2022-07-18T03:48:43;15.30;;;14.70;;
7587;SDS011;3835;48.850;8.938;2022-07-18T03:51:10;12.50;;;12.00;;
7587;SDS011;3835;48.850;8.938;2022-07-18T03:53:36;12.90;;;12.40;;
7587;SDS011;3835;48.850;8.938;2022-07-18T03:56:05;23.47;;;22.53;;
7587;SDS011;3835;48.850;8.938;2022-07-18T03:58:32;24.33;;;23.40;;
7587;SDS011;3835;48.850;8.938;2022-07-18T04:00:59;12.13;;;11.73;;
7587;SDS011;3835;48.850;8.938;2022-07-18T04:03:26;13.00;;;12.50;;
7587;SDS011;3835;48.850;8.938;2022-07-18T04:05:53;12.63;;;12.10;;
7587;SDS011;3835;48.850;8.938;2022-07-18T04:08:20;17.90;;;17.20;;
7587;SDS011;3835;48.850;8.938;2022-07-18T04:10:47;12.90;;;12.40;;
7587;SDS011;3835;48.850;8.938;2022-07-18T04:13:15;18.87;;;18.13;;
7587;SDS011;3835;48.850;8.938;2022-07-18T04:15:42;15.83;;;15.23;;
7587;SDS011;3835;48.850;8.938;2022-07-18T04:18:09;11.10;;;10.70;;
7587;SDS011;3835;48.850;8.938;2022-07-18T04:20:36;11.33;;;10.83;;
7587;SDS011;3835;48.850;8.938;2022-07-18T04:23:05;13.40;;;12.90;;
7587;SDS011;3835;48.850;8.938;2022-07-18T04:25:33;14.13;;;13.60;;
7587;SDS011;3835;48.850;8.938;2022-07-18T04:28:01;11.13;;;10.73;;
7587;SDS011;3835;48.850;8.938;2022-07-18T04:30:30;12.20;;;11.37;;
7587;SDS011;3835;48.850;8.938;2022-07-18T04:32:57;10.87;;;10.47;;
7587;SDS011;3835;48.850;8.938;2022-07-18T04:35:26;11.87;;;11.37;;
7587;SDS011;3835;48.850;8.938;2022-07-18T04:37:53;12.23;;;11.73;;
7587;SDS011;3835;48.850;8.938;2022-07-18T04:40:20;10.67;;;10.27;;
7587;SDS011;3835;48.850;8.938;2022-07-18T04:42:47;11.47;;;11.07;;
7587;SDS011;3835;48.850;8.938;2022-07-18T04:45:14;12.00;;;11.50;;
7587;SDS011;3835;48.850;8.938;2022-07-18T04:47:44;11.13;;;10.73;;
7587;SDS011;3835;48.850;8.938;2022-07-18T04:50:11;11.43;;;11.03;;
7587;SDS011;3835;48.850;8.938;2022-07-18T04:52:38;11.67;;;11.10;;
7587;SDS011;3835;48.850;8.938;2022-07-18T04:55:06;11.43;;;10.93;;
7587;SDS011;3835;48.850;8.938;2022-07-18T04:57:34;11.43;;;10.93;;
7587;SDS011;3835;48.850;8.938;2022-07-18T05:00:03;11.83;;;11.40;;
7587;SDS011;3835;48.850;8.938;2022-07-18T05:02:31;11.20;;;10.77;;
7587;SDS011;3835;48.850;8.938;2022-07-18T05:05:00;11.70;;;11.10;;
7587;SDS011;3835;48.850;8.938;2022-07-18T05:07:27;11.20;;;10.80;;
7587;SDS011;3835;48.850;8.938;2022-07-18T05:09:53;11.43;;;11.03;;
7587;SDS011;3835;48.850;8.938;2022-07-18T05:12:20;12.60;;;12.10;;
7587;SDS011;3835;48.850;8.938;2022-07-18T05:14:48;12.03;;;11.53;;
7587;SDS011;3835;48.850;8.938;2022-07-18T05:17:15;10.93;;;10.53;;
7587;SDS011;3835;48.850;8.938;2022-07-18T05:19:42;12.13;;;11.63;;
7587;SDS011;3835;48.850;8.938;2022-07-18T05:22:10;12.77;;;12.27;;
7587;SDS011;3835;48.850;8.938;2022-07-18T05:24:37;16.00;;;14.97;;
7587;SDS011;3835;48.850;8.938;2022-07-18T05:27:04;12.20;;;11.70;;
7587;SDS011;3835;48.850;8.938;2022-07-18T05:29:31;10.53;;;10.13;;
7587;SDS011;3835;48.850;8.938;2022-07-18T05:31:58;11.53;;;11.03;;
7587;SDS011;3835;48.850;8.938;2022-07-18T05:34:25;12.87;;;12.37;;
7587;SDS011;3835;48.850;8.938;2022-07-18T05:36:52;11.63;;;11.23;;
7587;SDS011;3835;48.850;8.938;2022-07-18T05:39:21;12.37;;;11.87;;
7587;SDS011;3835;48.850;8.938;2022-07-18T05:41:48;12.63;;;11.83;;
7587;SDS011;3835;48.850;8.938;2022-07-18T05:44:14;12.37;;;11.87;;
7587;SDS011;3835;48.850;8.938;2022-07-18T05:46:44;12.93;;;12.43;;
7587;SDS011;3835;48.850;8.938;2022-07-18T05:49:11;10.80;;;10.40;;
7587;SDS011;3835;48.850;8.938;2022-07-18T05:51:38;11.47;;;10.97;;
7587;SDS011;3835;48.850;8.938;2022-07-18T05:54:05;12.00;;;11.53;;
7587;SDS011;3835;48.850;8.938;2022-07-18T05:56:33;10.23;;;9.83;;
7587;SDS011;3835;48.850;8.938;2022-07-18T05:59:00;11.47;;;10.87;;
7587;SDS011;3835;48.850;8.938;2022-07-18T06:01:27;10.80;;;10.40;;
7587;SDS011;3835;48.850;8.938;2022-07-18T06:03:54;12.47;;;11.97;;
7587;SDS011;3835;48.850;8.938;2022-07-18T06:06:20;10.10;;;9.70;;
7587;SDS011;3835;48.850;8.938;2022-07-18T06:08:48;9.97;;;9.57;;
7587;SDS011;3835;48.850;8.938;2022-07-18T06:11:15;10.43;;;10.03;;
7587;SDS011;3835;48.850;8.938;2022-07-18T06:13:43;10.43;;;10.03;;
7587;SDS011;3835;48.850;8.938;2022-07-18T06:16:10;10.60;;;10.20;;
7587;SDS011;3835;48.850;8.938;2022-07-18T06:18:37;10.83;;;10.43;;
7587;SDS011;3835;48.850;8.938;2022-07-18T06:21:04;12.47;;;11.97;;
7587;SDS011;3835;48.850;8.938;2022-07-18T06:23:31;11.03;;;10.63;;
7587;SDS011;3835;48.850;8.938;2022-07-18T06:25:58;12.60;;;12.10;;
7587;SDS011;3835;48.850;8.938;2022-07-18T06:28:25;11.70;;;11.27;;
7587;SDS011;3835;48.850;8.938;2022-07-18T06:30:54;12.00;;;11.50;;
7587;SDS011;3835;48.850;8.938;2022-07-18T06:33:21;11.27;;;10.87;;
7587;SDS011;3835;48.850;8.938;2022-07-18T06:35:48;10.80;;;10.40;;
7587;SDS011;3835;48.850;8.938;2022-07-18T06:38:16;11.47;;;10.97;;
7587;SDS011;3835;48.850;8.938;2022-07-18T06:40:43;11.40;;;11.00;;
7587;SDS011;3835;48.850;8.938;2022-07-18T06:43:10;11.10;;;10.70;;
7587;SDS011;3835;48.850;8.938;2022-07-18T06:45:38;12.30;;;11.80;;
7587;SDS011;3835;48.850;8.938;2022-07-18T06:48:07;10.83;;;10.43;;
7587;SDS011;3835;48.850;8.938;2022-07-18T06:50:34;10.93;;;10.53;;
7587;SDS011;3835;48.850;8.938;2022-07-18T06:53:01;11.60;;;11.20;;
7587;SDS011;3835;48.850;8.938;2022-07-18T06:55:28;10.27;;;9.87;;
7587;SDS011;3835;48.850;8.938;2022-07-18T06:57:55;10.87;;;10.47;;
7587;SDS011;3835;48.850;8.938;2022-07-18T07:00:22;10.80;;;10.20;;
7587;SDS011;3835;48.850;8.938;2022-07-18T07:02:49;11.20;;;10.77;;
7587;SDS011;3835;48.850;8.938;2022-07-18T07:05:18;9.67;;;9.27;;
7587;SDS011;3835;48.850;8.938;2022-07-18T07:07:46;11.93;;;11.43;;
7587;SDS011;3835;48.850;8.938;2022-07-18T07:10:14;11.40;;;10.80;;
7587;SDS011;3835;48.850;8.938;2022-07-18T07:12:42;10.97;;;10.47;;
7587;SDS011;3835;48.850;8.938;2022-07-18T07:15:10;11.07;;;10.57;;
7587;SDS011;3835;48.850;8.938;2022-07-18T07:17:38;10.87;;;10.47;;
7587;SDS011;3835;48.850;8.938;2022-07-18T07:20:06;11.50;;;11.10;;
7587;SDS011;3835;48.850;8.938;2022-07-18T07:22:41;11.30;;;10.90;;
7587;SDS011;3835;48.850;8.938;2022-07-18T07:25:09;11.27;;;10.87;;
7587;SDS011;3835;48.850;8.938;2022-07-18T07:27:36;11.10;;;10.70;;
7587;SDS011;3835;48.850;8.938;2022-07-18T07:30:03;10.70;;;10.30;;
7587;SDS011;3835;48.850;8.938;2022-07-18T07:32:33;11.80;;;11.30;;
7587;SDS011;3835;48.850;8.938;2022-07-18T07:35:01;11.63;;;11.13;;
7587;SDS011;3835;48.850;8.938;2022-07-18T07:37:28;9.43;;;9.03;;
7587;SDS011;3835;48.850;8.938;2022-07-18T07:39:56;10.63;;;10.23;;
7587;SDS011;3835;48.850;8.938;2022-07-18T07:42:23;10.33;;;9.93;;
7587;SDS011;3835;48.850;8.938;2022-07-18T07:47:22;9.67;;;9.27;;
7587;SDS011;3835;48.850;8.938;2022-07-18T07:49:49;10.33;;;9.87;;
7587;SDS011;3835;48.850;8.938;2022-07-18T07:52:16;10.77;;;10.37;;
7587;SDS011;3835;48.850;8.938;2022-07-18T07:54:43;9.63;;;9.23;;
7587;SDS011;3835;48.850;8.938;2022-07-18T07:57:12;11.03;;;10.53;;
7587;SDS011;3835;48.850;8.938;2022-07-18T07:59:39;10.27;;;9.87;;
7587;SDS011;3835;48.850;8.938;2022-07-18T08:02:06;10.43;;;10.00;;
7587;SDS011;3835;48.850;8.938;2022-07-18T08:04:32;9.50;;;9.10;;
7587;SDS011;3835;48.850;8.938;2022-07-18T08:06:59;10.33;;;9.93;;
7587;SDS011;3835;48.850;8.938;2022-07-18T08:09:26;10.47;;;10.07;;
7587;SDS011;3835;48.850;8.938;2022-07-18T08:11:53;10.57;;;10.10;;
7587;SDS011;3835;48.850;8.938;2022-07-18T08:14:21;10.47;;;10.07;;
7587;SDS011;3835;48.850;8.938;2022-07-18T08:16:48;10.57;;;10.17;;
7587;SDS011;3835;48.850;8.938;2022-07-18T08:19:15;9.70;;;9.30;;
7587;SDS011;3835;48.850;8.938;2022-07-18T08:21:43;10.33;;;9.93;;
7587;SDS011;3835;48.850;8.938;2022-07-18T08:24:10;8.80;;;8.50;;
7587;SDS011;3835;48.850;8.938;2022-07-18T08:26:36;11.13;;;10.70;;
7587;SDS011;3835;48.850;8.938;2022-07-18T08:29:04;10.23;;;9.83;;
7587;SDS011;3835;48.850;8.938;2022-07-18T08:31:33;10.23;;;9.83;;
7587;SDS011;3835;48.850;8.938;2022-07-18T08:34:00;10.53;;;10.13;;
7587;SDS011;3835;48.850;8.938;2022-07-18T08:36:27;10.57;;;10.07;;
7587;SDS011;3835;48.850;8.938;2022-07-18T08:38:54;10.00;;;9.60;;
7587;SDS011;3835;48.850;8.938;2022-07-18T08:41:21;10.30;;;9.90;;
7587;SDS011;3835;48.850;8.938;2022-07-18T08:43:50;9.77;;;9.37;;
7587;SDS011;3835;48.850;8.938;2022-07-18T08:46:18;10.37;;;9.97;;
7587;SDS011;3835;48.850;8.938;2022-07-18T08:48:48;10.87;;;10.47;;
7587;SDS011;3835;48.850;8.938;2022-07-18T08:51:17;9.50;;;9.10;;
7587;SDS011;3835;48.850;8.938;2022-07-18T08:53:45;10.13;;;9.73;;
7587;SDS011;3835;48.850;8.938;2022-07-18T08:56:13;10.03;;;9.63;;
7587;SDS011;3835;48.850;8.938;2022-07-18T08:58:40;10.20;;;9.80;;
7587;SDS011;3835;48.850;8.938;2022-07-18T09:01:06;9.60;;;9.10;;
7587;SDS011;3835;48.850;8.938;2022-07-18T09:03:34;9.50;;;9.10;;
7587;SDS011;3835;48.850;8.938;2022-07-18T09:06:06;10.00;;;9.60;;
7587;SDS011;3835;48.850;8.938;2022-07-18T09:08:35;10.03;;;9.63;;
7587;SDS011;3835;48.850;8.938;2022-07-18T09:11:04;9.70;;;9.30;;
7587;SDS011;3835;48.850;8.938;2022-07-18T09:13:36;10.13;;;9.73;;
7587;SDS011;3835;48.850;8.938;2022-07-18T09:16:06;11.13;;;10.63;;
7587;SDS011;3835;48.850;8.938;2022-07-18T09:18:36;9.60;;;9.20;;
7587;SDS011;3835;48.850;8.938;2022-07-18T09:21:04;9.87;;;9.47;;
7587;SDS011;3835;48.850;8.938;2022-07-18T09:23:35;10.73;;;10.33;;
7587;SDS011;3835;48.850;8.938;2022-07-18T09:26:03;10.67;;;10.17;;
7587;SDS011;3835;48.850;8.938;2022-07-18T09:28:44;10.57;;;10.17;;
7587;SDS011;3835;48.850;8.938;2022-07-18T09:31:19;10.30;;;9.90;;
7587;SDS011;3835;48.850;8.938;2022-07-18T09:33:52;9.37;;;8.97;;
7587;SDS011;3835;48.850;8.938;2022-07-18T09:36:21;10.50;;;10.10;;
7587;SDS011;3835;48.850;8.938;2022-07-18T09:38:48;10.43;;;10.03;;
7587;SDS011;3835;48.850;8.938;2022-07-18T09:41:15;10.20;;;9.80;;
7587;SDS011;3835;48.850;8.938;2022-07-18T09:43:42;9.67;;;9.27;;
7587;SDS011;3835;48.850;8.938;2022-07-18T09:46:09;10.53;;;10.13;;
7587;SDS011;3835;48.850;8.938;2022-07-18T09:48:36;10.80;;;10.40;;
7587;SDS011;3835;48.850;8.938;2022-07-18T09:51:03;10.30;;;9.90;;
7587;SDS011;3835;48.850;8.938;2022-07-18T09:53:33;10.40;;;9.80;;
7587;SDS011;3835;48.850;8.938;2022-07-18T09:56:03;10.27;;;9.87;;
7587;SDS011;3835;48.850;8.938;2022-07-18T09:58:32;10.10;;;9.70;;
7587;SDS011;3835;48.850;8.938;2022-07-18T10:01:01;10.20;;;9.80;;
7587;SDS011;3835;48.850;8.938;2022-07-18T10:03:29;10.07;;;9.67;;
7587;SDS011;3835;48.850;8.938;2022-07-18T10:05:57;10.40;;;10.00;;
7587;SDS011;3835;48.850;8.938;2022-07-18T10:08:25;10.80;;;10.40;;
7587;SDS011;3835;48.850;8.938;2022-07-18T10:10:55;10.97;;;10.57;;
7587;SDS011;3835;48.850;8.938;2022-07-18T10:13:24;10.30;;;9.90;;
7587;SDS011;3835;48.850;8.938;2022-07-18T10:15:52;10.03;;;9.63;;
7587;SDS011;3835;48.850;8.938;2022-07-18T10:18:19;10.60;;;10.20;;
7587;SDS011;3835;48.850;8.938;2022-07-18T10:20:49;10.33;;;9.93;;
7587;SDS011;3835;48.850;8.938;2022-07-18T10:23:20;9.33;;;9.03;;
7587;SDS011;3835;48.850;8.938;2022-07-18T10:26:10;10.30;;;9.90;;
7587;SDS011;3835;48.850;8.938;2022-07-18T10:31:36;10.90;;;10.40;;
7587;SDS011;3835;48.850;8.938;2022-07-18T10:34:10;10.37;;;9.97;;
7587;SDS011;3835;48.850;8.938;2022-07-18T10:36:38;10.63;;;10.23;;
7587;SDS011;3835;48.850;8.938;2022-07-18T10:39:07;10.80;;;10.40;;
7587;SDS011;3835;48.850;8.938;2022-07-18T10:44:40;9.80;;;9.40;;
7587;SDS011;3835;48.850;8.938;2022-07-18T10:47:07;10.53;;;10.03;;
7587;SDS011;3835;48.850;8.938;2022-07-18T10:55:31;11.10;;;10.63;;
7587;SDS011;3835;48.850;8.938;2022-07-18T10:58:16;9.70;;;9.30;;
7587;SDS011;3835;48.850;8.938;2022-07-18T11:00:44;10.73;;;10.33;;
7587;SDS011;3835;48.850;8.938;2022-07-18T11:03:15;10.13;;;9.73;;
7587;SDS011;3835;48.850;8.938;2022-07-18T11:05:44;10.03;;;9.63;;
7587;SDS011;3835;48.850;8.938;2022-07-18T11:08:16;10.43;;;9.93;;
7587;SDS011;3835;48.850;8.938;2022-07-18T11:13:37;10.27;;;9.87;;
7587;SDS011;3835;48.850;8.938;2022-07-18T11:16:08;10.67;;;10.27;;
7587;SDS011;3835;48.850;8.938;2022-07-18T11:21:36;10.20;;;9.80;;
7587;SDS011;3835;48.850;8.938;2022-07-18T11:24:03;11.20;;;10.80;;
7587;SDS011;3835;48.850;8.938;2022-07-18T11:26:33;9.90;;;9.50;;
7587;SDS011;3835;48.850;8.938;2022-07-18T11:29:02;10.80;;;10.40;;
7587;SDS011;3835;48.850;8.938;2022-07-18T11:31:31;11.37;;;10.87;;
7587;SDS011;3835;48.850;8.938;2022-07-18T11:33:59;9.93;;;9.53;;
7587;SDS011;3835;48.850;8.938;2022-07-18T11:36:27;10.87;;;10.37;;
7587;SDS011;3835;48.850;8.938;2022-07-18T11:38:57;11.83;;;11.33;;
7587;SDS011;3835;48.850;8.938;2022-07-18T11:41:26;10.40;;;9.97;;
7587;SDS011;3835;48.850;8.938;2022-07-18T11:43:53;10.37;;;9.87;;
7587;SDS011;3835;48.850;8.938;2022-07-18T11:46:23;10.40;;;10.00;;
7587;SDS011;3835;48.850;8.938;2022-07-18T11:48:57;10.43;;;10.03;;
7587;SDS011;3835;48.850;8.938;2022-07-18T11:51:25;10.07;;;9.67;;
7587;SDS011;3835;48.850;8.938;2022-07-18T11:54:00;11.17;;;10.67;;
7587;SDS011;3835;48.850;8.938;2022-07-18T11:56:27;10.77;;;10.37;;
7587;SDS011;3835;48.850;8.938;2022-07-18T11:58:54;9.97;;;9.57;;
7587;SDS011;3835;48.850;8.938;2022-07-18T12:01:24;9.77;;;9.37;;
7587;SDS011;3835;48.850;8.938;2022-07-18T12:03:56;9.57;;;9.17;;
7587;SDS011;3835;48.850;8.938;2022-07-18T12:06:24;10.47;;;9.97;;
7587;SDS011;3835;48.850;8.938;2022-07-18T12:08:52;9.17;;;8.77;;
7587;SDS011;3835;48.850;8.938;2022-07-18T12:11:25;9.07;;;8.67;;
7587;SDS011;3835;48.850;8.938;2022-07-18T12:13:53;10.70;;;10.30;;
7587;SDS011;3835;48.850;8.938;2022-07-18T12:16:24;9.97;;;9.57;;
7587;SDS011;3835;48.850;8.938;2022-07-18T12:18:57;10.87;;;10.37;;
7587;SDS011;3835;48.850;8.938;2022-07-18T12:21:24;9.27;;;8.87;;
7587;SDS011;3835;48.850;8.938;2022-07-18T12:24:22;10.17;;;9.77;;
7587;SDS011;3835;48.850;8.938;2022-07-18T12:27:06;10.17;;;9.77;;
7587;SDS011;3835;48.850;8.938;2022-07-18T12:30:01;10.30;;;9.90;;
7587;SDS011;3835;48.850;8.938;2022-07-18T12:32:38;10.07;;;9.57;;
7587;SDS011;3835;48.850;8.938;2022-07-18T12:35:10;9.53;;;9.13;;
7587;SDS011;3835;48.850;8.938;2022-07-18T12:37:38;10.27;;;9.87;;
7587;SDS011;3835;48.850;8.938;2022-07-18T12:40:06;10.23;;;9.83;;
7587;SDS011;3835;48.850;8.938;2022-07-18T12:42:35;10.87;;;10.47;;
7587;SDS011;3835;48.850;8.938;2022-07-18T12:45:04;9.77;;;9.37;;
7587;SDS011;3835;48.850;8.938;2022-07-18T12:47:32;9.90;;;9.50;;
7587;SDS011;3835;48.850;8.938;2022-07-18T12:50:00;10.30;;;9.90;;
7587;SDS011;3835;48.850;8.938;2022-07-18T12:52:28;9.87;;;9.47;;
7587;SDS011;3835;48.850;8.938;2022-07-18T12:54:55;11.77;;;10.77;;
7587;SDS011;3835;48.850;8.938;2022-07-18T12:57:22;10.57;;;10.17;;
7587;SDS011;3835;48.850;8.938;2022-07-18T12:59:49;10.70;;;10.13;;
7587;SDS011;3835;48.850;8.938;2022-07-18T13:02:16;10.87;;;10.47;;
7587;SDS011;3835;48.850;8.938;2022-07-18T13:04:44;10.40;;;9.90;;
7587;SDS011;3835;48.850;8.938;2022-07-18T13:07:12;10.73;;;10.33;;
7587;SDS011;3835;48.850;8.938;2022-07-18T13:09:39;11.17;;;10.77;;
7587;SDS011;3835;48.850;8.938;2022-07-18T13:12:06;9.87;;;9.47;;
7587;SDS011;3835;48.850;8.938;2022-07-18T13:14:33;11.67;;;11.13;;
7587;SDS011;3835;48.850;8.938;2022-07-18T13:17:00;10.20;;;9.80;;
7587;SDS011;3835;48.850;8.938;2022-07-18T13:19:27;10.67;;;10.27;;
7587;SDS011;3835;48.850;8.938;2022-07-18T13:21:56;9.93;;;9.53;;
7587;SDS011;3835;48.850;8.938;2022-07-18T13:24:25;10.57;;;10.17;;
7587;SDS011;3835;48.850;8.938;2022-07-18T13:26:53;9.83;;;9.43;;
7587;SDS011;3835;48.850;8.938;2022-07-18T13:29:20;10.20;;;9.67;;
7587;SDS011;3835;48.850;8.938;2022-07-18T13:31:47;10.40;;;10.00;;
7587;SDS011;3835;48.850;8.938;2022-07-18T13:34:16;10.03;;;9.63;;
7587;SDS011;3835;48.850;8.938;2022-07-18T13:36:45;10.43;;;10.03;;
7587;SDS011;3835;48.850;8.938;2022-07-18T13:39:13;10.13;;;9.73;;
7587;SDS011;3835;48.850;8.938;2022-07-18T13:41:41;10.13;;;9.63;;
7587;SDS011;3835;48.850;8.938;2022-07-18T13:44:08;10.23;;;9.83;;
7587;SDS011;3835;48.850;8.938;2022-07-18T13:46:35;9.70;;;9.30;;
7587;SDS011;3835;48.850;8.938;2022-07-18T13:49:01;12.13;;;11.60;;
7587;SDS011;3835;48.850;8.938;2022-07-18T13:51:28;10.57;;;10.07;;
7587;SDS011;3835;48.850;8.938;2022-07-18T13:53:55;9.33;;;8.93;;
7587;SDS011;3835;48.850;8.938;2022-07-18T13:56:22;9.40;;;9.00;;
7587;SDS011;3835;48.850;8.938;2022-07-18T13:58:50;9.83;;;9.43;;
7587;SDS011;3835;48.850;8.938;2022-07-18T14:01:17;9.63;;;9.23;;
7587;SDS011;3835;48.850;8.938;2022-07-18T14:03:44;9.97;;;9.57;;
7587;SDS011;3835;48.850;8.938;2022-07-18T14:06:11;10.47;;;10.00;;
7587;SDS011;3835;48.850;8.938;2022-07-18T14:08:38;9.60;;;9.20;;
7587;SDS011;3835;48.850;8.938;2022-07-18T14:11:05;9.47;;;9.07;;
7587;SDS011;3835;48.850;8.938;2022-07-18T14:13:32;10.20;;;9.80;;
7587;SDS011;3835;48.850;8.938;2022-07-18T14:16:00;9.90;;;9.50;;
7587;SDS011;3835;48.850;8.938;2022-07-18T14:18:27;9.77;;;9.37;;
7587;SDS011;3835;48.850;8.938;2022-07-18T14:20:54;9.87;;;9.47;;
7587;SDS011;3835;48.850;8.938;2022-07-18T14:23:21;9.10;;;8.77;;
7587;SDS011;3835;48.850;8.938;2022-07-18T14:25:48;9.83;;;9.43;;
7587;SDS011;3835;48.850;8.938;2022-07-18T14:28:15;9.37;;;8.97;;
7587;SDS011;3835;48.850;8.938;2022-07-18T14:30:42;9.27;;;8.87;;
7587;SDS011;3835;48.850;8.938;2022-07-18T14:33:10;9.40;;;9.00;;
7587;SDS011;3835;48.850;8.938;2022-07-18T14:35:37;10.03;;;9.57;;
7587;SDS011;3835;48.850;8.938;2022-07-18T14:38:04;8.70;;;8.40;;
7587;SDS011;3835;48.850;8.938;2022-07-18T14:40:31;10.53;;;10.03;;
7587;SDS011;3835;48.850;8.938;2022-07-18T14:42:58;10.07;;;9.67;;
7587;SDS011;3835;48.850;8.938;2022-07-18T14:45:25;10.13;;;9.73;;
7587;SDS011;3835;48.850;8.938;2022-07-18T14:47:52;9.60;;;9.10;;
7587;SDS011;3835;48.850;8.938;2022-07-18T14:50:20;8.53;;;8.23;;
7587;SDS011;3835;48.850;8.938;2022-07-18T14:52:47;8.97;;;8.63;;
7587;SDS011;3835;48.850;8.938;2022-07-18T14:55:14;8.80;;;8.50;;
7587;SDS011;3835;48.850;8.938;2022-07-18T14:57:40;10.00;;;9.60;;
7587;SDS011;3835;48.850;8.938;2022-07-18T15:00:08;10.40;;;10.00;;
7587;SDS011;3835;48.850;8.938;2022-07-18T15:02:36;9.10;;;8.77;;
7587;SDS011;3835;48.850;8.938;2022-07-18T15:05:03;10.13;;;9.63;;
7587;SDS011;3835;48.850;8.938;2022-07-18T15:07:32;10.20;;;9.80;;
7587;SDS011;3835;48.850;8.938;2022-07-18T15:09:59;10.53;;;10.10;;
7587;SDS011;3835;48.850;8.938;2022-07-18T15:12:26;9.30;;;8.93;;
7587;SDS011;3835;48.850;8.938;2022-07-18T15:14:53;9.93;;;9.53;;
7587;SDS011;3835;48.850;8.938;2022-07-18T15:17:21;9.70;;;9.30;;
7587;SDS011;3835;48.850;8.938;2022-07-18T15:19:48;9.67;;;9.27;;
7587;SDS011;3835;48.850;8.938;2022-07-18T15:22:15;9.53;;;9.13;;
7587;SDS011;3835;48.850;8.938;2022-07-18T15:24:44;9.57;;;9.17;;